Bushville, New York
Current Conditions -  °F | °C
As of 12:54 PM on Sunday 21 Dec 2014 (Local Time) from KBUF Reporting Station
Broken Clouds Broken Clouds  
Wind Chill: 27°   Ceiling: 3500
Heat Index: 33°   Visibility: 10mi
Dew Point: 22°   Wind: 7mph
Humidity: 64%   Direction: 250°WSW
Pressure: 30.28"   Gusts: NA
Location:  42.9969°N, 78.2158°W
Report Text: KBUF 211754Z 25006KT 10SM SCT028 BKN035 01/M06 A3028 RMK AO2 SLP264 T00061056 10006 21028 58012
Loading
Personal Weather Stations






























Interactive Weather Map New forecast layout! Learn more

10-Day Weather Forecast

Advertisements
Track Severe Weather on mobile